sensor_id;sensor_type;location;lat;lon;timestamp;temperature;humidity
35244;DHT22;37916;52.160;21.066;2022-11-20T00:09:51;-4.50;80.90
35244;DHT22;37916;52.160;21.066;2022-11-20T00:19:52;-4.70;81.30
35244;DHT22;37916;52.160;21.066;2022-11-20T00:29:53;-4.70;82.10
35244;DHT22;37916;52.160;21.066;2022-11-20T00:40:05;-4.50;82.00
35244;DHT22;37916;52.160;21.066;2022-11-20T00:50:12;-4.20;80.90
35244;DHT22;37916;52.160;21.066;2022-11-20T01:00:15;-4.10;80.60
35244;DHT22;37916;52.160;21.066;2022-11-20T01:10:22;-4.00;80.00
35244;DHT22;37916;52.160;21.066;2022-11-20T01:20:26;-4.10;79.80
35244;DHT22;37916;52.160;21.066;2022-11-20T01:30:31;-4.20;80.10
35244;DHT22;37916;52.160;21.066;2022-11-20T01:40:55;-4.40;80.60
35244;DHT22;37916;52.160;21.066;2022-11-20T02:01:45;-4.20;81.30
35244;DHT22;37916;52.160;21.066;2022-11-20T02:11:49;-3.90;80.70
35244;DHT22;37916;52.160;21.066;2022-11-20T02:22:03;-3.80;80.00
35244;DHT22;37916;52.160;21.066;2022-11-20T02:32:23;-3.70;80.20
35244;DHT22;37916;52.160;21.066;2022-11-20T02:42:29;-3.80;80.20
35244;DHT22;37916;52.160;21.066;2022-11-20T02:52:33;-3.90;80.80
35244;DHT22;37916;52.160;21.066;2022-11-20T03:02:34;-3.90;81.00
35244;DHT22;37916;52.160;21.066;2022-11-20T03:12:34;-3.90;81.00
35244;DHT22;37916;52.160;21.066;2022-11-20T03:22:35;-3.90;81.50
35244;DHT22;37916;52.160;21.066;2022-11-20T03:32:36;-3.90;81.70
35244;DHT22;37916;52.160;21.066;2022-11-20T03:42:36;-4.00;81.80
35244;DHT22;37916;52.160;21.066;2022-11-20T03:52:45;-4.20;82.30
35244;DHT22;37916;52.160;21.066;2022-11-20T04:02:46;-4.30;83.20
35244;DHT22;37916;52.160;21.066;2022-11-20T04:12:47;-4.60;83.20
35244;DHT22;37916;52.160;21.066;2022-11-20T04:22:48;-4.80;83.60
35244;DHT22;37916;52.160;21.066;2022-11-20T04:32:48;-5.00;84.00
35244;DHT22;37916;52.160;21.066;2022-11-20T04:42:49;-5.10;84.10
35244;DHT22;37916;52.160;21.066;2022-11-20T04:52:58;-5.20;84.40
35244;DHT22;37916;52.160;21.066;2022-11-20T05:03:02;-5.30;84.70
35244;DHT22;37916;52.160;21.066;2022-11-20T05:13:08;-5.40;85.00
35244;DHT22;37916;52.160;21.066;2022-11-20T05:23:14;-5.50;84.90
35244;DHT22;37916;52.160;21.066;2022-11-20T05:33:15;-5.70;84.30
35244;DHT22;37916;52.160;21.066;2022-11-20T05:43:16;-5.60;85.20
35244;DHT22;37916;52.160;21.066;2022-11-20T05:53:17;-5.70;84.90
35244;DHT22;37916;52.160;21.066;2022-11-20T06:03:17;-5.80;84.60
35244;DHT22;37916;52.160;21.066;2022-11-20T06:13:18;-5.80;84.70
35244;DHT22;37916;52.160;21.066;2022-11-20T06:23:19;-5.80;84.90
35244;DHT22;37916;52.160;21.066;2022-11-20T06:33:20;-5.60;84.90
35244;DHT22;37916;52.160;21.066;2022-11-20T06:43:21;-5.50;84.60
35244;DHT22;37916;52.160;21.066;2022-11-20T06:53:22;-5.40;84.40
35244;DHT22;37916;52.160;21.066;2022-11-20T07:03:23;-5.30;83.90
35244;DHT22;37916;52.160;21.066;2022-11-20T07:13:24;-5.10;83.80
35244;DHT22;37916;52.160;21.066;2022-11-20T07:23:25;-5.00;83.60
35244;DHT22;37916;52.160;21.066;2022-11-20T07:33:35;-4.80;83.30
35244;DHT22;37916;52.160;21.066;2022-11-20T07:43:35;-4.70;83.10
35244;DHT22;37916;52.160;21.066;2022-11-20T07:53:36;-4.40;82.70
35244;DHT22;37916;52.160;21.066;2022-11-20T08:03:39;-4.20;82.50
35244;DHT22;37916;52.160;21.066;2022-11-20T08:13:40;-4.00;82.40
35244;DHT22;37916;52.160;21.066;2022-11-20T08:23:59;-3.80;82.20
35244;DHT22;37916;52.160;21.066;2022-11-20T08:34:01;-3.50;82.30
35244;DHT22;37916;52.160;21.066;2022-11-20T08:44:10;-2.90;81.30
35244;DHT22;37916;52.160;21.066;2022-11-20T09:04:32;-2.20;79.60
35244;DHT22;37916;52.160;21.066;2022-11-20T09:14:38;-2.10;79.60
35244;DHT22;37916;52.160;21.066;2022-11-20T09:24:42;-2.10;80.60
35244;DHT22;37916;52.160;21.066;2022-11-20T09:56:01;-1.60;80.20
35244;DHT22;37916;52.160;21.066;2022-11-20T10:16:41;-1.10;79.70
35244;DHT22;37916;52.160;21.066;2022-11-20T10:48:23;-0.30;78.20
35244;DHT22;37916;52.160;21.066;2022-11-20T13:44:25;0.20;79.30
35244;DHT22;37916;52.160;21.066;2022-11-20T14:05:05;0.10;79.60
35244;DHT22;37916;52.160;21.066;2022-11-20T16:24:38;-1.70;85.00
35244;DHT22;37916;52.160;21.066;2022-11-20T16:34:39;-1.60;85.50
35244;DHT22;37916;52.160;21.066;2022-11-20T16:44:39;-1.40;84.90
35244;DHT22;37916;52.160;21.066;2022-11-20T17:05:03;-1.10;84.20
35244;DHT22;37916;52.160;21.066;2022-11-20T17:36:48;-1.60;84.40
35244;DHT22;37916;52.160;21.066;2022-11-20T17:46:49;-1.90;85.60
35244;DHT22;37916;52.160;21.066;2022-11-20T17:56:58;-2.20;85.70
35244;DHT22;37916;52.160;21.066;2022-11-20T18:18:45;-2.50;86.70
35244;DHT22;37916;52.160;21.066;2022-11-20T18:28:49;-2.70;86.60
35244;DHT22;37916;52.160;21.066;2022-11-20T18:38:52;-2.90;87.10
35244;DHT22;37916;52.160;21.066;2022-11-20T18:48:55;-3.00;87.10
35244;DHT22;37916;52.160;21.066;2022-11-20T18:59:03;-3.10;87.70
35244;DHT22;37916;52.160;21.066;2022-11-20T19:09:04;-3.10;87.40
35244;DHT22;37916;52.160;21.066;2022-11-20T19:19:05;-3.10;87.60
35244;DHT22;37916;52.160;21.066;2022-11-20T19:29:06;-2.50;87.40
35244;DHT22;37916;52.160;21.066;2022-11-20T19:39:08;-2.10;85.90
35244;DHT22;37916;52.160;21.066;2022-11-20T19:49:12;-2.00;85.30
35244;DHT22;37916;52.160;21.066;2022-11-20T19:59:13;-1.90;84.70
35244;DHT22;37916;52.160;21.066;2022-11-20T20:09:14;-1.70;84.70
35244;DHT22;37916;52.160;21.066;2022-11-20T20:19:38;-1.70;84.60
35244;DHT22;37916;52.160;21.066;2022-11-20T20:40:47;-1.30;84.30
35244;DHT22;37916;52.160;21.066;2022-11-20T20:50:54;-1.10;83.90
35244;DHT22;37916;52.160;21.066;2022-11-20T21:01:04;-1.10;83.90
35244;DHT22;37916;52.160;21.066;2022-11-20T21:11:10;-0.90;83.60
35244;DHT22;37916;52.160;21.066;2022-11-20T21:21:13;-0.80;83.50
35244;DHT22;37916;52.160;21.066;2022-11-20T21:31:32;-0.80;83.30
35244;DHT22;37916;52.160;21.066;2022-11-20T21:41:33;-0.80;83.40
35244;DHT22;37916;52.160;21.066;2022-11-20T21:52:01;-0.80;83.30
35244;DHT22;37916;52.160;21.066;2022-11-20T22:02:13;-0.90;83.70
35244;DHT22;37916;52.160;21.066;2022-11-20T22:12:40;-1.00;83.80
35244;DHT22;37916;52.160;21.066;2022-11-20T22:22:49;-1.10;83.70
35244;DHT22;37916;52.160;21.066;2022-11-20T22:54:56;-1.90;85.20
